Time;durP1;ratioP1;P1;durP2;ratioP2;P2;SDS_P1;SDS_P2;PMS_P1;PMS_P2;Temp;Humidity;BMP_temperature;BMP_pressure;BME280_temperature;BME280_humidity;BME280_pressure;Samples;Min_cycle;Max_cycle;Signal;HPM_P1;HPM_P2
2023/04/24 00:01:21;;;;;;;;;;;10.80;99.90;;;;;;5124255;28;19927;-67
2023/04/24 00:03:48;;;;;;;;;;;10.80;99.90;;;;;;5123620;28;19989;-66
2023/04/24 00:06:16;;;;;;;;;;;10.80;99.90;;;;;;5124705;28;20203;-68
2023/04/24 00:08:43;;;;;;;;;;;10.80;99.90;;;;;;5125178;28;19919;-69
2023/04/24 00:11:10;;;;;;;;;;;10.70;99.90;;;;;;5125199;28;19991;-68
2023/04/24 00:13:36;;;;;;;;;;;10.70;99.90;;;;;;5125290;28;19920;-68
2023/04/24 00:16:03;;;;;;;;;;;10.70;99.90;;;;;;5124858;28;19970;-70
2023/04/24 00:18:31;;;;;;;;;;;10.70;99.90;;;;;;5125152;28;19945;-68
2023/04/24 00:20:58;;;;;;;;;;;10.70;99.90;;;;;;5124745;28;20012;-69
2023/04/24 00:23:25;;;;;;;;;;;10.70;99.90;;;;;;5125084;28;19961;-68
2023/04/24 00:25:51;;;;;;;;;;;10.70;99.90;;;;;;5124386;28;19986;-68
2023/04/24 00:28:18;;;;;;;;;;;10.60;99.90;;;;;;5124686;28;19926;-68
2023/04/24 00:30:45;;;;;;;;;;;10.60;99.90;;;;;;5124539;28;20258;-68
2023/04/24 00:33:11;;;;;;;;;;;10.60;99.90;;;;;;5124864;28;19986;-68
2023/04/24 00:35:39;;;;;;;;;;;10.60;99.90;;;;;;5124196;28;19986;-69
2023/04/24 00:38:06;;;;;;;;;;;10.50;99.90;;;;;;5124389;28;20162;-68
2023/04/24 00:40:33;;;;;;;;;;;10.50;99.90;;;;;;5124695;28;19920;-68
2023/04/24 00:42:59;;;;;;;;;;;10.50;99.90;;;;;;5124393;28;19919;-69
2023/04/24 00:45:26;;;;;;;;;;;10.50;99.90;;;;;;5124304;28;19958;-70
2023/04/24 00:47:53;;;;;;;;;;;10.40;99.90;;;;;;5124324;28;19919;-71
2023/04/24 00:50:21;;;;;;;;;;;10.40;99.90;;;;;;5124321;28;19926;-68
2023/04/24 00:52:51;;;;;;;;;;;10.40;99.90;;;;;;5123886;28;20281;-68
2023/04/24 00:55:18;;;;;;;;;;;10.40;99.90;;;;;;5124393;28;20111;-68
2023/04/24 00:57:45;;;;;;;;;;;10.40;99.90;;;;;;5123563;28;19919;-68
2023/04/24 01:00:13;;;;;;;;;;;10.40;99.90;;;;;;5124214;28;19919;-69
2023/04/24 01:02:43;;;;;;;;;;;10.40;99.90;;;;;;5133411;27;19919;-68
2023/04/24 01:05:11;;;;;;;;;;;10.40;99.90;;;;;;5144906;27;19988;-69
2023/04/24 01:07:38;;;;;;;;;;;10.40;99.90;;;;;;5144228;27;19961;-70
2023/04/24 01:10:07;;;;;;;;;;;10.40;99.90;;;;;;5139674;27;19919;-68
2023/04/24 01:12:34;;;;;;;;;;;10.40;99.90;;;;;;5140529;27;19920;-68
2023/04/24 01:15:01;;;;;;;;;;;10.40;99.90;;;;;;5123010;28;19995;-68
2023/04/24 01:17:28;;;;;;;;;;;10.40;99.90;;;;;;5121978;28;20010;-70
2023/04/24 01:19:56;;;;;;;;;;;10.40;99.90;;;;;;5132418;27;19954;-68
2023/04/24 01:22:24;;;;;;;;;;;10.40;99.90;;;;;;5143649;27;19927;-68
2023/04/24 01:24:51;;;;;;;;;;;10.40;99.90;;;;;;5144032;27;19919;-68
2023/04/24 01:27:17;;;;;;;;;;;10.30;99.90;;;;;;5143936;27;19920;-68
2023/04/24 01:29:44;;;;;;;;;;;10.30;99.90;;;;;;5144556;27;19925;-68
2023/04/24 01:32:11;;;;;;;;;;;10.30;99.90;;;;;;5144399;27;19986;-70
2023/04/24 01:34:38;;;;;;;;;;;10.30;99.90;;;;;;5144375;27;19926;-68
2023/04/24 01:37:05;;;;;;;;;;;10.20;99.90;;;;;;5143439;27;20207;-68
2023/04/24 01:39:33;;;;;;;;;;;10.20;99.90;;;;;;5144393;28;19961;-68
2023/04/24 01:42:01;;;;;;;;;;;10.10;99.90;;;;;;5144372;28;19919;-68
2023/04/24 01:44:28;;;;;;;;;;;10.10;99.90;;;;;;5144271;28;19927;-68
2023/04/24 01:46:55;;;;;;;;;;;10.10;99.90;;;;;;5143650;27;19994;-70
2023/04/24 01:49:22;;;;;;;;;;;10.10;99.90;;;;;;5141687;27;19920;-69
2023/04/24 01:51:49;;;;;;;;;;;10.10;99.90;;;;;;5129639;28;20180;-68
2023/04/24 01:54:15;;;;;;;;;;;10.20;99.90;;;;;;5123782;28;20093;-69
2023/04/24 01:56:44;;;;;;;;;;;10.20;99.90;;;;;;5122918;28;19950;-68
2023/04/24 01:59:11;;;;;;;;;;;10.20;99.90;;;;;;5123413;28;20271;-68
2023/04/24 02:01:38;;;;;;;;;;;10.30;99.90;;;;;;5123523;28;19994;-68
2023/04/24 02:04:05;;;;;;;;;;;10.20;99.90;;;;;;5123301;28;19967;-68
2023/04/24 02:06:32;;;;;;;;;;;10.20;99.90;;;;;;5122881;28;19919;-68
2023/04/24 02:08:58;;;;;;;;;;;10.30;99.90;;;;;;5123658;28;20116;-69
2023/04/24 02:11:25;;;;;;;;;;;10.20;99.90;;;;;;5123498;28;19958;-67
2023/04/24 02:13:53;;;;;;;;;;;10.20;99.90;;;;;;5123539;28;19942;-67
2023/04/24 02:16:20;;;;;;;;;;;10.20;99.90;;;;;;5123195;28;19991;-68
2023/04/24 02:18:46;;;;;;;;;;;10.20;99.90;;;;;;5123533;28;19920;-70
2023/04/24 02:21:13;;;;;;;;;;;10.10;99.90;;;;;;5123425;28;19966;-68
2023/04/24 02:23:40;;;;;;;;;;;10.10;99.90;;;;;;5123049;28;19994;-68
2023/04/24 02:26:07;;;;;;;;;;;10.10;99.90;;;;;;5125026;28;20006;-68
2023/04/24 02:28:33;;;;;;;;;;;10.10;99.90;;;;;;5127186;28;19987;-68
2023/04/24 02:31:01;;;;;;;;;;;10.10;99.90;;;;;;5127186;28;19987;-68
2023/04/24 02:33:28;;;;;;;;;;;10.10;99.90;;;;;;5126788;28;19920;-70
2023/04/24 02:35:54;;;;;;;;;;;10.10;99.90;;;;;;5126504;28;19992;-70
2023/04/24 02:38:21;;;;;;;;;;;10.10;99.90;;;;;;5126683;28;19947;-68
2023/04/24 02:40:47;;;;;;;;;;;10.10;99.90;;;;;;5126526;28;19954;-68
2023/04/24 02:43:14;;;;;;;;;;;10.20;99.90;;;;;;5126690;28;19982;-68
2023/04/24 02:45:41;;;;;;;;;;;10.10;99.90;;;;;;5126798;28;19988;-68
2023/04/24 02:48:09;;;;;;;;;;;10.10;99.90;;;;;;5126287;28;19987;-68
2023/04/24 02:50:35;;;;;;;;;;;10.10;99.90;;;;;;5139071;27;19920;-68
2023/04/24 02:53:02;;;;;;;;;;;10.00;99.90;;;;;;5147173;27;19986;-69
2023/04/24 02:55:28;;;;;;;;;;;10.00;99.90;;;;;;5147059;27;19946;-68
2023/04/24 02:57:55;;;;;;;;;;;10.10;99.90;;;;;;5146497;27;20042;-68
2023/04/24 03:00:22;;;;;;;;;;;10.00;99.90;;;;;;5146889;27;19957;-68
2023/04/24 03:02:49;;;;;;;;;;;10.00;99.90;;;;;;5146966;27;19920;-68
2023/04/24 03:05:17;;;;;;;;;;;10.00;99.90;;;;;;5147060;27;19947;-68
2023/04/24 03:07:43;;;;;;;;;;;10.00;99.90;;;;;;5146289;27;19986;-68
2023/04/24 03:10:10;;;;;;;;;;;10.10;99.90;;;;;;5138596;27;19986;-68
2023/04/24 03:12:37;;;;;;;;;;;10.00;99.90;;;;;;5125938;28;19992;-69
2023/04/24 03:15:04;;;;;;;;;;;10.10;99.90;;;;;;5126265;28;19958;-69
2023/04/24 03:17:30;;;;;;;;;;;10.00;99.90;;;;;;5125377;28;19991;-68
2023/04/24 03:19:57;;;;;;;;;;;10.00;99.90;;;;;;5125960;28;19951;-68
2023/04/24 03:22:25;;;;;;;;;;;9.90;99.90;;;;;;5126019;28;19963;-68
2023/04/24 03:24:52;;;;;;;;;;;9.90;99.90;;;;;;5126067;28;19920;-68
2023/04/24 03:27:18;;;;;;;;;;;9.90;99.90;;;;;;5125074;28;19927;-68
2023/04/24 03:29:45;;;;;;;;;;;9.90;99.90;;;;;;5129942;27;19978;-68
2023/04/24 03:32:12;;;;;;;;;;;9.90;99.90;;;;;;5146325;27;19982;-68
2023/04/24 03:34:38;;;;;;;;;;;9.90;99.90;;;;;;5146033;27;19986;-68
2023/04/24 03:37:05;;;;;;;;;;;9.80;99.90;;;;;;5144353;27;19988;-68
2023/04/24 03:39:33;;;;;;;;;;;9.80;99.90;;;;;;5146421;27;20006;-68
2023/04/24 03:42:00;;;;;;;;;;;9.80;99.90;;;;;;5145780;27;19919;-68
2023/04/24 03:44:26;;;;;;;;;;;9.80;99.90;;;;;;5145876;27;19957;-69
2023/04/24 03:46:53;;;;;;;;;;;9.90;99.90;;;;;;5145514;27;19919;-68
2023/04/24 03:49:20;;;;;;;;;;;9.80;99.90;;;;;;5145855;27;20127;-68
2023/04/24 03:51:47;;;;;;;;;;;9.80;99.90;;;;;;5145679;27;19919;-68
2023/04/24 03:54:13;;;;;;;;;;;9.70;99.90;;;;;;5146116;27;19926;-69
2023/04/24 03:56:41;;;;;;;;;;;9.70;99.90;;;;;;5145765;27;20118;-69
2023/04/24 03:59:08;;;;;;;;;;;9.70;99.90;;;;;;5145892;27;19926;-68
2023/04/24 04:01:36;;;;;;;;;;;9.80;99.90;;;;;;5145732;27;19994;-69
2023/04/24 04:04:03;;;;;;;;;;;9.70;99.90;;;;;;5145807;27;19919;-68
2023/04/24 04:06:30;;;;;;;;;;;9.80;99.90;;;;;;5145543;27;19986;-69
2023/04/24 04:08:57;;;;;;;;;;;9.80;99.90;;;;;;5146272;27;19919;-68
2023/04/24 04:11:23;;;;;;;;;;;9.80;99.90;;;;;;5145597;27;20114;-68
2023/04/24 04:13:51;;;;;;;;;;;9.70;99.90;;;;;;5145488;27;19991;-69
2023/04/24 04:16:18;;;;;;;;;;;9.70;99.90;;;;;;5144927;27;19986;-68
2023/04/24 04:18:45;;;;;;;;;;;9.70;99.90;;;;;;5145634;27;19926;-68
2023/04/24 04:21:12;;;;;;;;;;;9.70;99.90;;;;;;5144315;27;19927;-69
2023/04/24 04:23:39;;;;;;;;;;;9.80;99.90;;;;;;5145180;27;19919;-69
2023/04/24 04:26:07;;;;;;;;;;;9.70;99.90;;;;;;5144963;27;19960;-68
2023/04/24 04:28:34;;;;;;;;;;;9.70;99.90;;;;;;5144949;27;19942;-68
2023/04/24 04:31:02;;;;;;;;;;;9.70;99.90;;;;;;5131829;27;19923;-68
2023/04/24 04:33:29;;;;;;;;;;;9.70;99.90;;;;;;5124868;28;19922;-69
2023/04/24 04:35:56;;;;;;;;;;;9.70;99.90;;;;;;5123756;28;20212;-68
2023/04/24 04:38:23;;;;;;;;;;;9.70;99.90;;;;;;5121650;28;19924;-68
2023/04/24 04:40:49;;;;;;;;;;;9.70;99.90;;;;;;5132047;27;20107;-68
2023/04/24 04:43:16;;;;;;;;;;;9.70;99.90;;;;;;5139127;27;19979;-68
2023/04/24 04:45:43;;;;;;;;;;;9.70;99.90;;;;;;5124381;28;20231;-67
2023/04/24 04:48:13;;;;;;;;;;;9.70;99.90;;;;;;5132755;27;19919;-68
2023/04/24 04:50:39;;;;;;;;;;;9.80;99.90;;;;;;5145030;27;20160;-69
2023/04/24 04:53:06;;;;;;;;;;;9.80;99.90;;;;;;5144698;27;19983;-69
2023/04/24 04:55:33;;;;;;;;;;;9.70;99.90;;;;;;5144697;27;19919;-68
2023/04/24 04:58:00;;;;;;;;;;;9.70;99.90;;;;;;5144602;27;19973;-69
2023/04/24 05:00:27;;;;;;;;;;;9.70;99.90;;;;;;5144668;27;19957;-69
2023/04/24 05:02:53;;;;;;;;;;;9.70;99.90;;;;;;5125830;27;19962;-68
2023/04/24 05:05:22;;;;;;;;;;;9.70;99.90;;;;;;5124438;28;19942;-71
2023/04/24 05:07:49;;;;;;;;;;;9.60;99.90;;;;;;5140708;27;19926;-68
2023/04/24 05:10:15;;;;;;;;;;;9.60;99.90;;;;;;5144730;27;20020;-68
2023/04/24 05:12:42;;;;;;;;;;;9.70;99.90;;;;;;5144835;27;19958;-69
2023/04/24 05:15:09;;;;;;;;;;;9.70;99.90;;;;;;5138346;27;20140;-70
2023/04/24 05:17:35;;;;;;;;;;;9.70;99.90;;;;;;5123681;27;19956;-69
2023/04/24 05:20:03;;;;;;;;;;;9.80;99.90;;;;;;5143306;27;19919;-68
2023/04/24 05:22:31;;;;;;;;;;;9.80;99.90;;;;;;5124117;28;19927;-68
2023/04/24 05:24:58;;;;;;;;;;;9.70;99.90;;;;;;5134605;27;20230;-68
2023/04/24 05:27:25;;;;;;;;;;;9.80;99.90;;;;;;5144360;27;19976;-67
2023/04/24 05:29:51;;;;;;;;;;;9.80;99.90;;;;;;5144497;27;19961;-68
2023/04/24 05:32:18;;;;;;;;;;;9.80;99.90;;;;;;5144654;27;19920;-68
2023/04/24 05:34:45;;;;;;;;;;;9.80;99.90;;;;;;5144432;27;19941;-67
2023/04/24 05:37:11;;;;;;;;;;;9.80;99.90;;;;;;5141089;27;20249;-66
2023/04/24 05:39:40;;;;;;;;;;;9.80;99.90;;;;;;5144637;28;19983;-67
2023/04/24 05:42:07;;;;;;;;;;;9.80;99.90;;;;;;5144490;28;19926;-67
2023/04/24 05:44:34;;;;;;;;;;;9.90;99.90;;;;;;5144312;27;19923;-67
2023/04/24 05:47:01;;;;;;;;;;;10.00;99.90;;;;;;5143916;28;19920;-67
2023/04/24 05:49:28;;;;;;;;;;;10.00;99.90;;;;;;5144137;28;19924;-67
2023/04/24 05:51:54;;;;;;;;;;;10.00;99.90;;;;;;5144350;28;20011;-68
2023/04/24 05:54:21;;;;;;;;;;;10.00;99.90;;;;;;5144377;28;19983;-67
2023/04/24 05:56:50;;;;;;;;;;;10.00;99.90;;;;;;5138064;28;20255;-67
2023/04/24 05:59:16;;;;;;;;;;;10.00;99.90;;;;;;5142516;27;19920;-67
2023/04/24 06:01:43;;;;;;;;;;;10.00;99.90;;;;;;5146677;27;20170;-67
2023/04/24 06:04:09;;;;;;;;;;;10.00;99.90;;;;;;5148338;27;19955;-66
2023/04/24 06:06:36;;;;;;;;;;;10.00;99.90;;;;;;5147844;27;19987;-70
2023/04/24 06:09:03;;;;;;;;;;;10.00;99.90;;;;;;5127820;28;19994;-69
2023/04/24 06:11:30;;;;;;;;;;;9.90;99.90;;;;;;5129801;27;20255;-68
2023/04/24 06:13:58;;;;;;;;;;;9.80;99.90;;;;;;5146906;27;19950;-70
2023/04/24 06:16:25;;;;;;;;;;;9.80;99.90;;;;;;5148144;27;19919;-69
2023/04/24 06:18:51;;;;;;;;;;;9.80;99.90;;;;;;5147305;27;19919;-68
2023/04/24 06:21:18;;;;;;;;;;;9.80;99.90;;;;;;5148254;27;19920;-69
2023/04/24 06:23:46;;;;;;;;;;;9.70;99.90;;;;;;5147736;27;20203;-68
2023/04/24 06:26:12;;;;;;;;;;;9.70;99.90;;;;;;5147475;27;20115;-68
2023/04/24 06:28:39;;;;;;;;;;;9.70;99.90;;;;;;5147732;27;20230;-70
2023/04/24 06:31:07;;;;;;;;;;;9.70;99.90;;;;;;5125855;28;19991;-70
2023/04/24 06:33:34;;;;;;;;;;;9.80;99.90;;;;;;5127524;28;19926;-70
2023/04/24 06:36:00;;;;;;;;;;;9.80;99.90;;;;;;5126866;28;19955;-69
2023/04/24 06:38:29;;;;;;;;;;;9.90;99.90;;;;;;5137572;27;19919;-68
2023/04/24 06:40:56;;;;;;;;;;;9.90;99.90;;;;;;5147518;27;19919;-70
2023/04/24 06:43:22;;;;;;;;;;;10.00;99.90;;;;;;5147746;27;19982;-70
2023/04/24 06:45:49;;;;;;;;;;;10.00;99.90;;;;;;5147218;27;19920;-70
2023/04/24 06:48:17;;;;;;;;;;;10.00;99.90;;;;;;5146950;27;20267;-69
2023/04/24 06:50:43;;;;;;;;;;;10.00;99.90;;;;;;5131703;27;19920;-68
2023/04/24 06:53:12;;;;;;;;;;;10.00;99.90;;;;;;5127574;27;19979;-69
2023/04/24 06:55:39;;;;;;;;;;;10.00;99.90;;;;;;5140003;27;20230;-68
2023/04/24 06:58:05;;;;;;;;;;;10.00;99.90;;;;;;5146968;27;20162;-70
2023/04/24 07:00:32;;;;;;;;;;;10.00;99.90;;;;;;5147333;27;19942;-69
2023/04/24 07:02:59;;;;;;;;;;;10.00;99.90;;;;;;5137998;27;19982;-69
2023/04/24 07:05:28;;;;;;;;;;;9.90;99.90;;;;;;5126677;28;19919;-70
2023/04/24 07:07:54;;;;;;;;;;;9.90;99.90;;;;;;5126160;28;20146;-69
2023/04/24 07:10:21;;;;;;;;;;;9.80;99.90;;;;;;5127760;27;19955;-68
2023/04/24 07:12:48;;;;;;;;;;;9.80;99.90;;;;;;5146785;27;19919;-68
2023/04/24 07:15:14;;;;;;;;;;;9.80;99.90;;;;;;5147108;27;19964;-68
2023/04/24 07:17:43;;;;;;;;;;;9.80;99.90;;;;;;5146614;27;20168;-70
2023/04/24 07:20:10;;;;;;;;;;;9.80;99.90;;;;;;5146799;27;19920;-68
2023/04/24 07:22:38;;;;;;;;;;;9.80;99.90;;;;;;5146876;27;19920;-68
2023/04/24 07:25:05;;;;;;;;;;;9.80;99.90;;;;;;5146983;27;19933;-70
2023/04/24 07:27:32;;;;;;;;;;;9.80;99.90;;;;;;5139873;27;19979;-68
2023/04/24 07:29:58;;;;;;;;;;;9.80;99.90;;;;;;5125670;28;20077;-69
2023/04/24 07:32:25;;;;;;;;;;;9.80;99.90;;;;;;5124333;28;19955;-68
2023/04/24 07:34:52;;;;;;;;;;;9.80;99.90;;;;;;5125504;28;19919;-69
2023/04/24 07:37:18;;;;;;;;;;;9.70;99.90;;;;;;5124911;28;19986;-69
2023/04/24 07:39:46;;;;;;;;;;;9.70;99.90;;;;;;5125537;28;19926;-68
2023/04/24 07:42:13;;;;;;;;;;;9.60;99.90;;;;;;5128722;27;19919;-70
2023/04/24 07:44:39;;;;;;;;;;;9.70;99.90;;;;;;5138429;27;20175;-68
2023/04/24 07:47:07;;;;;;;;;;;9.70;99.90;;;;;;5125243;28;19994;-69
2023/04/24 07:49:34;;;;;;;;;;;9.80;99.90;;;;;;5125738;28;20211;-68
2023/04/24 07:52:02;;;;;;;;;;;9.90;99.90;;;;;;5139219;27;19929;-71
2023/04/24 07:54:29;;;;;;;;;;;10.00;99.90;;;;;;5146194;27;20207;-69
2023/04/24 07:56:57;;;;;;;;;;;10.10;99.90;;;;;;5145349;27;19926;-68
2023/04/24 07:59:24;;;;;;;;;;;10.00;99.90;;;;;;5166510;27;20076;-68
2023/04/24 08:01:50;;;;;;;;;;;10.10;99.90;;;;;;5159058;27;19926;-68
2023/04/24 08:04:17;;;;;;;;;;;10.10;99.90;;;;;;5143694;27;19998;-70
2023/04/24 08:06:44;;;;;;;;;;;10.10;99.90;;;;;;5145064;27;19923;-70
2023/04/24 08:09:11;;;;;;;;;;;10.10;99.90;;;;;;5145936;27;19990;-68
2023/04/24 08:11:37;;;;;;;;;;;10.00;99.90;;;;;;5145835;27;19942;-68
2023/04/24 08:14:05;;;;;;;;;;;10.10;99.90;;;;;;5145976;27;19926;-68
2023/04/24 08:16:33;;;;;;;;;;;10.10;99.90;;;;;;5145357;27;19951;-69
2023/04/24 08:19:00;;;;;;;;;;;10.10;99.90;;;;;;5145257;27;19926;-69
2023/04/24 08:21:27;;;;;;;;;;;10.30;99.90;;;;;;5145824;27;20171;-68
2023/04/24 08:23:53;;;;;;;;;;;10.30;99.90;;;;;;5131738;27;19919;-68
2023/04/24 08:26:20;;;;;;;;;;;10.20;99.90;;;;;;5124341;28;19920;-68
2023/04/24 08:28:47;;;;;;;;;;;10.30;99.90;;;;;;5125391;28;19927;-69
2023/04/24 08:31:14;;;;;;;;;;;10.40;99.90;;;;;;5125209;28;19945;-68
2023/04/24 08:33:41;;;;;;;;;;;10.50;99.90;;;;;;5132285;27;20207;-70
2023/04/24 08:36:08;;;;;;;;;;;10.60;99.90;;;;;;5145351;27;20028;-68
2023/04/24 08:38:35;;;;;;;;;;;10.70;99.90;;;;;;5145243;27;20204;-70
2023/04/24 08:41:02;;;;;;;;;;;10.60;99.90;;;;;;5145000;27;19990;-68
2023/04/24 08:43:28;;;;;;;;;;;10.70;99.90;;;;;;5145225;27;19920;-70
2023/04/24 08:45:56;;;;;;;;;;;10.60;99.90;;;;;;5145317;27;19919;-68
2023/04/24 08:48:24;;;;;;;;;;;10.80;99.90;;;;;;5145769;27;19926;-68
2023/04/24 08:50:51;;;;;;;;;;;10.90;99.90;;;;;;5128171;27;19920;-68
2023/04/24 08:53:18;;;;;;;;;;;11.00;99.90;;;;;;5124692;28;19982;-68
2023/04/24 08:55:47;;;;;;;;;;;11.20;99.90;;;;;;5124368;28;19983;-70
2023/04/24 08:58:14;;;;;;;;;;;11.20;99.90;;;;;;5124188;28;19949;-68
2023/04/24 09:00:46;;;;;;;;;;;11.20;99.90;;;;;;5143622;27;19920;-70
2023/04/24 09:03:14;;;;;;;;;;;11.10;99.90;;;;;;5127391;27;19920;-68
2023/04/24 09:05:45;;;;;;;;;;;11.10;99.90;;;;;;5124756;27;19927;-68
2023/04/24 09:08:13;;;;;;;;;;;11.10;99.90;;;;;;5144685;27;20208;-68
2023/04/24 09:10:40;;;;;;;;;;;11.10;99.90;;;;;;5134303;27;20081;-69
2023/04/24 09:13:08;;;;;;;;;;;11.10;99.90;;;;;;5125642;27;20012;-69
2023/04/24 09:15:35;;;;;;;;;;;11.20;99.90;;;;;;5144413;27;19950;-68
2023/04/24 09:18:02;;;;;;;;;;;11.20;99.90;;;;;;5143284;27;20219;-70
2023/04/24 09:20:29;;;;;;;;;;;11.30;99.90;;;;;;5137489;27;19951;-69
2023/04/24 09:22:57;;;;;;;;;;;11.50;99.90;;;;;;5142569;27;19926;-70
2023/04/24 09:25:26;;;;;;;;;;;11.70;99.90;;;;;;5123656;28;19982;-68
2023/04/24 09:27:54;;;;;;;;;;;11.80;99.90;;;;;;5123257;28;19920;-70
2023/04/24 09:30:22;;;;;;;;;;;11.80;99.90;;;;;;5123998;28;19924;-69
2023/04/24 09:32:49;;;;;;;;;;;11.80;99.90;;;;;;5121293;28;19919;-69
2023/04/24 09:35:16;;;;;;;;;;;11.80;99.90;;;;;;5123755;28;19920;-69
2023/04/24 09:37:43;;;;;;;;;;;11.90;99.90;;;;;;5140202;27;20179;-68
2023/04/24 09:40:13;;;;;;;;;;;11.80;99.90;;;;;;5144536;28;19924;-69
2023/04/24 09:42:40;;;;;;;;;;;11.80;99.90;;;;;;5144545;28;20065;-68
2023/04/24 09:45:09;;;;;;;;;;;11.80;99.90;;;;;;5144247;28;19919;-68
2023/04/24 09:47:37;;;;;;;;;;;11.90;99.90;;;;;;5143499;28;19926;-68
2023/04/24 09:50:09;;;;;;;;;;;12.00;99.90;;;;;;5144003;28;21216;-69
2023/04/24 09:52:36;;;;;;;;;;;12.10;99.90;;;;;;5144560;28;19965;-68
2023/04/24 09:55:03;;;;;;;;;;;12.10;99.90;;;;;;5144464;28;19982;-70
2023/04/24 09:57:32;;;;;;;;;;;12.10;99.90;;;;;;5143848;28;20210;-70
2023/04/24 09:59:58;;;;;;;;;;;12.10;99.90;;;;;;5144230;28;19920;-70
2023/04/24 10:02:25;;;;;;;;;;;12.00;99.90;;;;;;5131951;28;19968;-70
2023/04/24 10:04:55;;;;;;;;;;;12.10;99.90;;;;;;5133820;28;19925;-68
2023/04/24 10:07:22;;;;;;;;;;;12.10;99.90;;;;;;5143643;28;19961;-69
2023/04/24 10:09:48;;;;;;;;;;;12.30;99.90;;;;;;5138567;28;19987;-70
2023/04/24 10:12:15;;;;;;;;;;;12.40;99.90;;;;;;5123416;28;20238;-70
2023/04/24 10:14:45;;;;;;;;;;;12.50;99.90;;;;;;5123498;28;19920;-68
2023/04/24 10:17:12;;;;;;;;;;;12.40;99.90;;;;;;5143563;28;19987;-69
2023/04/24 10:19:39;;;;;;;;;;;12.30;99.90;;;;;;5143957;28;19926;-68
2023/04/24 10:22:06;;;;;;;;;;;12.30;99.90;;;;;;5144204;28;19941;-68
2023/04/24 10:24:35;;;;;;;;;;;12.20;99.90;;;;;;5144159;28;19926;-68
2023/04/24 10:27:01;;;;;;;;;;;12.00;99.90;;;;;;5124457;28;19935;-68
2023/04/24 10:29:29;;;;;;;;;;;11.80;99.90;;;;;;5129250;28;19947;-70
2023/04/24 10:31:57;;;;;;;;;;;11.50;99.90;;;;;;5133174;28;19927;-69
2023/04/24 10:34:24;;;;;;;;;;;11.40;99.90;;;;;;5123535;28;19928;-68
2023/04/24 10:36:52;;;;;;;;;;;11.20;99.90;;;;;;5123325;28;19923;-68
2023/04/24 10:39:19;;;;;;;;;;;11.10;99.90;;;;;;5123596;28;19987;-69
2023/04/24 10:41:47;;;;;;;;;;;11.00;99.90;;;;;;5123461;28;19919;-68
2023/04/24 10:44:14;;;;;;;;;;;11.00;99.90;;;;;;5123116;28;19920;-68
2023/04/24 10:46:44;;;;;;;;;;;10.90;99.90;;;;;;5123572;28;19920;-69
2023/04/24 10:49:12;;;;;;;;;;;11.00;99.90;;;;;;5127083;28;20025;-68
2023/04/24 10:51:45;;;;;;;;;;;11.20;99.90;;;;;;5126751;28;20271;-68
2023/04/24 10:54:22;;;;;;;;;;;11.30;99.90;;;;;;5126980;28;19973;-68
2023/04/24 10:56:50;;;;;;;;;;;11.40;99.90;;;;;;5126638;28;19926;-69
2023/04/24 10:59:24;;;;;;;;;;;11.70;99.90;;;;;;5126947;28;19987;-68
2023/04/24 11:01:53;;;;;;;;;;;12.00;99.90;;;;;;5134374;27;19919;-69
2023/04/24 11:04:31;;;;;;;;;;;12.30;99.90;;;;;;5130733;27;20204;-69
2023/04/24 11:06:58;;;;;;;;;;;12.50;99.90;;;;;;5133256;27;19926;-69
2023/04/24 11:09:27;;;;;;;;;;;12.70;99.90;;;;;;5132246;27;20175;-69
2023/04/24 11:12:03;;;;;;;;;;;12.80;99.90;;;;;;5126077;28;19983;-70
2023/04/24 11:14:29;;;;;;;;;;;12.60;99.90;;;;;;5126634;28;19920;-70
2023/04/24 11:16:56;;;;;;;;;;;12.40;99.90;;;;;;5125883;28;19983;-68
2023/04/24 11:19:24;;;;;;;;;;;12.40;99.90;;;;;;5126225;28;19987;-69
2023/04/24 11:21:57;;;;;;;;;;;12.20;99.90;;;;;;5128897;27;19930;-68
2023/04/24 11:24:24;;;;;;;;;;;12.10;99.90;;;;;;5147037;27;19960;-69
2023/04/24 11:26:52;;;;;;;;;;;12.10;99.90;;;;;;5146604;27;19971;-70
2023/04/24 11:29:20;;;;;;;;;;;11.90;99.90;;;;;;5145987;27;19942;-68
2023/04/24 11:31:49;;;;;;;;;;;12.00;99.90;;;;;;5125781;28;19987;-69
2023/04/24 11:34:16;;;;;;;;;;;12.10;99.90;;;;;;5126259;28;19920;-69
2023/04/24 11:36:44;;;;;;;;;;;12.20;99.90;;;;;;5125510;28;19919;-68
2023/04/24 11:39:12;;;;;;;;;;;12.10;99.90;;;;;;5126158;28;20115;-69
2023/04/24 11:41:39;;;;;;;;;;;12.10;99.90;;;;;;5126207;28;19962;-68
2023/04/24 11:44:07;;;;;;;;;;;12.10;99.90;;;;;;5129905;27;19964;-68
2023/04/24 11:46:34;;;;;;;;;;;12.10;99.90;;;;;;5145717;27;19919;-68
2023/04/24 11:49:01;;;;;;;;;;;12.00;99.90;;;;;;5146237;27;20282;-69
2023/04/24 11:51:28;;;;;;;;;;;11.90;99.90;;;;;;5146137;27;19998;-70
2023/04/24 11:53:55;;;;;;;;;;;11.70;99.90;;;;;;5146480;27;19951;-68
2023/04/24 11:56:23;;;;;;;;;;;11.60;99.90;;;;;;5146046;27;19919;-68
2023/04/24 11:58:52;;;;;;;;;;;11.50;99.90;;;;;;5145263;27;19920;-68
2023/04/24 12:01:19;;;;;;;;;;;11.40;99.90;;;;;;5143157;27;20163;-70
2023/04/24 12:03:48;;;;;;;;;;;11.20;99.90;;;;;;5124761;28;19958;-69
2023/04/24 12:06:14;;;;;;;;;;;11.20;99.90;;;;;;5125079;28;19958;-69
2023/04/24 12:08:41;;;;;;;;;;;11.30;99.90;;;;;;5125098;28;20215;-69
2023/04/24 12:11:08;;;;;;;;;;;11.40;99.90;;;;;;5125441;28;19947;-69
2023/04/24 12:13:36;;;;;;;;;;;11.50;99.90;;;;;;5132248;27;19926;-70
2023/04/24 12:16:04;;;;;;;;;;;11.60;99.90;;;;;;5127706;27;19965;-68
2023/04/24 12:18:30;;;;;;;;;;;11.80;99.90;;;;;;5145720;27;20151;-69
2023/04/24 12:21:12;;;;;;;;;;;12.20;99.90;;;;;;5140674;27;20104;-68
2023/04/24 12:23:39;;;;;;;;;;;12.50;99.90;;;;;;5121806;28;19924;-69
2023/04/24 12:26:05;;;;;;;;;;;12.50;99.90;;;;;;5124692;28;19959;-69
2023/04/24 12:28:37;;;;;;;;;;;12.40;99.90;;;;;;5142906;27;20114;-69
2023/04/24 12:31:04;;;;;;;;;;;12.20;99.90;;;;;;5143445;27;19972;-69
2023/04/24 12:33:33;;;;;;;;;;;12.30;99.90;;;;;;5145671;27;19920;-69
2023/04/24 12:36:00;;;;;;;;;;;12.60;99.90;;;;;;5145538;27;19919;-69
2023/04/24 12:38:27;;;;;;;;;;;13.00;99.90;;;;;;5144898;27;20119;-71
2023/04/24 12:41:02;;;;;;;;;;;13.10;99.90;;;;;;5145075;27;19926;-68
2023/04/24 12:43:29;;;;;;;;;;;13.00;99.90;;;;;;5136914;27;19920;-69
2023/04/24 12:45:57;;;;;;;;;;;12.80;99.90;;;;;;5124399;28;20177;-69
2023/04/24 12:48:23;;;;;;;;;;;12.50;99.90;;;;;;5124548;28;19919;-70
2023/04/24 12:50:50;;;;;;;;;;;12.20;99.90;;;;;;5124964;28;19958;-69
2023/04/24 12:53:17;;;;;;;;;;;12.10;99.90;;;;;;5123824;28;19954;-70
2023/04/24 12:55:44;;;;;;;;;;;12.40;99.90;;;;;;5124588;28;19953;-69
2023/04/24 12:58:11;;;;;;;;;;;12.60;99.90;;;;;;5124562;28;19926;-68
2023/04/24 13:00:39;;;;;;;;;;;12.40;99.90;;;;;;5124530;28;19927;-70
2023/04/24 13:03:07;;;;;;;;;;;12.20;99.90;;;;;;5124399;28;19920;-68
2023/04/24 13:05:33;;;;;;;;;;;11.90;99.90;;;;;;5124160;28;19928;-68
2023/04/24 13:08:00;;;;;;;;;;;11.70;99.90;;;;;;5124310;28;19994;-70
2023/04/24 13:10:26;;;;;;;;;;;11.50;99.90;;;;;;5124072;28;19951;-68
2023/04/24 13:12:53;;;;;;;;;;;11.30;99.90;;;;;;5124337;28;19991;-69
2023/04/24 13:15:20;;;;;;;;;;;11.10;99.90;;;;;;5124225;28;19991;-70
2023/04/24 13:17:46;;;;;;;;;;;10.80;99.90;;;;;;5121350;28;19982;-68
2023/04/24 13:20:14;;;;;;;;;;;10.80;99.90;;;;;;5124300;28;19926;-69
2023/04/24 13:22:41;;;;;;;;;;;10.90;99.90;;;;;;5124004;28;19927;-68
2023/04/24 13:25:08;;;;;;;;;;;10.90;99.90;;;;;;5123624;28;20336;-68
2023/04/24 13:27:35;;;;;;;;;;;10.80;99.90;;;;;;5123306;28;19951;-69
2023/04/24 13:30:02;;;;;;;;;;;10.70;99.90;;;;;;5123912;28;20114;-69
2023/04/24 13:32:29;;;;;;;;;;;10.70;99.90;;;;;;5124192;28;19951;-68
2023/04/24 13:34:55;;;;;;;;;;;11.00;99.90;;;;;;5123907;28;19934;-70
2023/04/24 13:37:23;;;;;;;;;;;11.40;99.90;;;;;;5123278;28;19962;-70
2023/04/24 13:39:50;;;;;;;;;;;11.80;99.90;;;;;;5123342;28;19920;-69
2023/04/24 13:42:18;;;;;;;;;;;12.30;99.90;;;;;;5124064;28;19919;-70
2023/04/24 13:44:44;;;;;;;;;;;12.50;99.90;;;;;;5123316;28;19952;-69
2023/04/24 13:47:11;;;;;;;;;;;12.60;99.90;;;;;;5123536;28;20010;-69
2023/04/24 13:49:37;;;;;;;;;;;12.40;99.90;;;;;;5123562;28;20272;-69
2023/04/24 13:52:04;;;;;;;;;;;12.30;99.90;;;;;;5123439;28;19927;-69
2023/04/24 13:54:32;;;;;;;;;;;11.90;99.90;;;;;;5123718;28;19919;-70
2023/04/24 13:57:00;;;;;;;;;;;11.90;99.90;;;;;;5123160;28;19920;-70
2023/04/24 13:59:26;;;;;;;;;;;11.80;99.90;;;;;;5123773;28;19961;-68
2023/04/24 14:01:53;;;;;;;;;;;11.70;99.90;;;;;;5123874;28;19982;-69
2023/04/24 14:04:20;;;;;;;;;;;11.60;99.90;;;;;;5123651;28;19994;-69
2023/04/24 14:06:46;;;;;;;;;;;11.40;99.90;;;;;;5123120;28;19982;-70
2023/04/24 14:09:13;;;;;;;;;;;11.20;99.90;;;;;;5136740;28;19977;-69
2023/04/24 14:11:41;;;;;;;;;;;11.20;99.90;;;;;;5144395;28;19919;-68
2023/04/24 14:14:08;;;;;;;;;;;10.60;99.90;;;;;;5143831;28;19919;-68
2023/04/24 14:16:35;;;;;;;;;;;10.20;99.90;;;;;;5142938;28;20032;-72
2023/04/24 14:19:02;;;;;;;;;;;10.20;99.90;;;;;;5127060;28;19919;-68
2023/04/24 14:21:28;;;;;;;;;;;10.30;99.90;;;;;;5124089;28;19979;-70